Santa Maria Da Serra, Brazil
Current Conditions -  °F | °C
As of 5:00 AM on Friday 24 Oct 2014 (Local Time) from SBBU Reporting Station
Clear Clear  
Wind Chill: 66°   Ceiling: Unl
Heat Index: 66°   Visibility: 6mi
Dew Point: 66°   Wind: 9mph
Humidity: 100%   Direction: 150°SSE
Pressure: 29.94"   Gusts: NA
Location:  22.57°S, 48.16°W
Report Text: SBBU 240700Z 15008KT CAVOK 19/19 Q1014
Loading
Personal Weather Stations






























Interactive Weather Map
Tropical Storm Tracking
New forecast layout! Learn more

10-Day Weather Forecast

Advertisements
Track Severe Weather on mobile